sensor_id;sensor_type;location;lat;lon;timestamp;temperature;humidity
13093;DHT22;6612;49.568;11.000;2023-08-12T00:00:55;22.80;57.60
13093;DHT22;6612;49.568;11.000;2023-08-12T00:03:22;22.80;57.80
13093;DHT22;6612;49.568;11.000;2023-08-12T00:05:49;22.80;57.80
13093;DHT22;6612;49.568;11.000;2023-08-12T00:08:16;22.70;57.90
13093;DHT22;6612;49.568;11.000;2023-08-12T00:10:43;22.70;58.00
13093;DHT22;6612;49.568;11.000;2023-08-12T00:13:10;22.60;58.00
13093;DHT22;6612;49.568;11.000;2023-08-12T00:15:39;22.70;58.20
13093;DHT22;6612;49.568;11.000;2023-08-12T00:18:07;22.60;58.20
13093;DHT22;6612;49.568;11.000;2023-08-12T00:20:34;22.50;58.30
13093;DHT22;6612;49.568;11.000;2023-08-12T00:23:03;22.50;58.20
13093;DHT22;6612;49.568;11.000;2023-08-12T00:25:31;22.50;58.40
13093;DHT22;6612;49.568;11.000;2023-08-12T00:27:58;22.40;58.40
13093;DHT22;6612;49.568;11.000;2023-08-12T00:30:24;22.40;58.40
13093;DHT22;6612;49.568;11.000;2023-08-12T00:32:51;22.40;58.60
13093;DHT22;6612;49.568;11.000;2023-08-12T00:35:20;22.30;58.60
13093;DHT22;6612;49.568;11.000;2023-08-12T00:37:46;22.30;58.80
13093;DHT22;6612;49.568;11.000;2023-08-12T00:40:13;22.30;58.80
13093;DHT22;6612;49.568;11.000;2023-08-12T00:42:40;22.30;58.80
13093;DHT22;6612;49.568;11.000;2023-08-12T00:45:09;22.20;58.80
13093;DHT22;6612;49.568;11.000;2023-08-12T00:47:38;22.20;59.10
13093;DHT22;6612;49.568;11.000;2023-08-12T00:50:06;22.20;59.00
13093;DHT22;6612;49.568;11.000;2023-08-12T00:52:35;22.10;59.10
13093;DHT22;6612;49.568;11.000;2023-08-12T00:55:03;22.10;59.30
13093;DHT22;6612;49.568;11.000;2023-08-12T00:57:30;22.10;59.30
13093;DHT22;6612;49.568;11.000;2023-08-12T00:59:57;22.00;59.30
13093;DHT22;6612;49.568;11.000;2023-08-12T01:02:24;22.00;60.00
13093;DHT22;6612;49.568;11.000;2023-08-12T01:04:51;22.00;59.50
13093;DHT22;6612;49.568;11.000;2023-08-12T01:07:18;21.90;59.40
13093;DHT22;6612;49.568;11.000;2023-08-12T01:09:46;21.90;59.60
13093;DHT22;6612;49.568;11.000;2023-08-12T01:12:17;21.90;59.80
13093;DHT22;6612;49.568;11.000;2023-08-12T01:14:50;21.90;59.90
13093;DHT22;6612;49.568;11.000;2023-08-12T01:17:17;21.80;59.80
13093;DHT22;6612;49.568;11.000;2023-08-12T01:19:46;21.80;59.60
13093;DHT22;6612;49.568;11.000;2023-08-12T01:22:14;21.80;60.00
13093;DHT22;6612;49.568;11.000;2023-08-12T01:24:45;21.70;59.80
13093;DHT22;6612;49.568;11.000;2023-08-12T01:27:12;21.70;60.00
13093;DHT22;6612;49.568;11.000;2023-08-12T01:29:41;21.70;60.00
13093;DHT22;6612;49.568;11.000;2023-08-12T01:32:14;21.70;60.30
13093;DHT22;6612;49.568;11.000;2023-08-12T01:34:48;21.70;60.50
13093;DHT22;6612;49.568;11.000;2023-08-12T01:37:21;21.60;60.40
13093;DHT22;6612;49.568;11.000;2023-08-12T01:39:52;21.60;60.30
13093;DHT22;6612;49.568;11.000;2023-08-12T01:42:21;21.60;60.70
13093;DHT22;6612;49.568;11.000;2023-08-12T01:44:49;21.60;60.50
13093;DHT22;6612;49.568;11.000;2023-08-12T01:47:16;21.50;60.60
13093;DHT22;6612;49.568;11.000;2023-08-12T01:49:43;21.50;60.50
13093;DHT22;6612;49.568;11.000;2023-08-12T01:52:10;21.50;60.60
13093;DHT22;6612;49.568;11.000;2023-08-12T01:54:37;21.50;60.60
13093;DHT22;6612;49.568;11.000;2023-08-12T01:57:05;21.40;60.60
13093;DHT22;6612;49.568;11.000;2023-08-12T01:59:34;21.40;60.80
13093;DHT22;6612;49.568;11.000;2023-08-12T02:02:01;21.40;60.80
13093;DHT22;6612;49.568;11.000;2023-08-12T02:04:28;21.30;60.80
13093;DHT22;6612;49.568;11.000;2023-08-12T02:06:55;21.40;61.00
13093;DHT22;6612;49.568;11.000;2023-08-12T02:09:23;21.30;60.90
13093;DHT22;6612;49.568;11.000;2023-08-12T02:11:49;21.30;60.90
13093;DHT22;6612;49.568;11.000;2023-08-12T02:14:18;21.30;61.10
13093;DHT22;6612;49.568;11.000;2023-08-12T02:16:45;21.30;61.30
13093;DHT22;6612;49.568;11.000;2023-08-12T02:19:12;21.30;61.20
13093;DHT22;6612;49.568;11.000;2023-08-12T02:21:39;21.20;61.10
13093;DHT22;6612;49.568;11.000;2023-08-12T02:24:06;21.20;61.10
13093;DHT22;6612;49.568;11.000;2023-08-12T02:26:33;21.20;61.20
13093;DHT22;6612;49.568;11.000;2023-08-12T02:29:01;21.20;61.20
13093;DHT22;6612;49.568;11.000;2023-08-12T02:31:29;21.20;61.30
13093;DHT22;6612;49.568;11.000;2023-08-12T02:33:56;21.10;61.50
13093;DHT22;6612;49.568;11.000;2023-08-12T02:36:23;21.10;61.40
13093;DHT22;6612;49.568;11.000;2023-08-12T02:38:50;21.10;61.50
13093;DHT22;6612;49.568;11.000;2023-08-12T02:41:17;21.10;61.50
13093;DHT22;6612;49.568;11.000;2023-08-12T02:43:44;21.00;61.50
13093;DHT22;6612;49.568;11.000;2023-08-12T02:46:11;21.00;61.60
13093;DHT22;6612;49.568;11.000;2023-08-12T02:48:42;21.00;61.70
13093;DHT22;6612;49.568;11.000;2023-08-12T02:51:09;21.00;62.00
13093;DHT22;6612;49.568;11.000;2023-08-12T02:53:36;20.90;61.70
13093;DHT22;6612;49.568;11.000;2023-08-12T02:56:03;20.90;61.80
13093;DHT22;6612;49.568;11.000;2023-08-12T02:58:30;20.90;61.90
13093;DHT22;6612;49.568;11.000;2023-08-12T03:00:57;20.90;62.00
13093;DHT22;6612;49.568;11.000;2023-08-12T03:03:24;20.90;61.90
13093;DHT22;6612;49.568;11.000;2023-08-12T03:05:52;20.90;62.00
13093;DHT22;6612;49.568;11.000;2023-08-12T03:08:19;20.80;62.20
13093;DHT22;6612;49.568;11.000;2023-08-12T03:10:46;20.80;62.10
13093;DHT22;6612;49.568;11.000;2023-08-12T03:13:13;20.80;62.20
13093;DHT22;6612;49.568;11.000;2023-08-12T03:15:40;20.80;62.30
13093;DHT22;6612;49.568;11.000;2023-08-12T03:18:08;20.70;62.20
13093;DHT22;6612;49.568;11.000;2023-08-12T03:20:36;20.70;62.30
13093;DHT22;6612;49.568;11.000;2023-08-12T03:23:04;20.80;62.40
13093;DHT22;6612;49.568;11.000;2023-08-12T03:25:31;20.70;62.50
13093;DHT22;6612;49.568;11.000;2023-08-12T03:27:58;20.70;62.40
13093;DHT22;6612;49.568;11.000;2023-08-12T03:30:25;20.70;62.50
13093;DHT22;6612;49.568;11.000;2023-08-12T03:32:52;20.60;62.30
13093;DHT22;6612;49.568;11.000;2023-08-12T03:35:19;20.60;62.50
13093;DHT22;6612;49.568;11.000;2023-08-12T03:37:46;20.60;62.60
13093;DHT22;6612;49.568;11.000;2023-08-12T03:40:14;20.60;62.70
13093;DHT22;6612;49.568;11.000;2023-08-12T03:42:41;20.60;62.80
13093;DHT22;6612;49.568;11.000;2023-08-12T03:45:09;20.50;62.60
13093;DHT22;6612;49.568;11.000;2023-08-12T03:47:36;20.50;62.60
13093;DHT22;6612;49.568;11.000;2023-08-12T03:50:03;20.60;62.70
13093;DHT22;6612;49.568;11.000;2023-08-12T03:52:30;20.50;62.70
13093;DHT22;6612;49.568;11.000;2023-08-12T03:54:57;20.50;62.80
13093;DHT22;6612;49.568;11.000;2023-08-12T03:57:26;20.50;62.90
13093;DHT22;6612;49.568;11.000;2023-08-12T03:59:53;20.50;63.10
13093;DHT22;6612;49.568;11.000;2023-08-12T04:02:20;20.50;63.10
13093;DHT22;6612;49.568;11.000;2023-08-12T04:04:46;20.50;63.20
13093;DHT22;6612;49.568;11.000;2023-08-12T04:07:13;20.50;63.30
13093;DHT22;6612;49.568;11.000;2023-08-12T04:09:40;20.50;63.50
13093;DHT22;6612;49.568;11.000;2023-08-12T04:12:07;20.50;63.60
13093;DHT22;6612;49.568;11.000;2023-08-12T04:14:35;20.50;63.70
13093;DHT22;6612;49.568;11.000;2023-08-12T04:17:02;20.50;63.90
13093;DHT22;6612;49.568;11.000;2023-08-12T04:19:29;20.50;63.90
13093;DHT22;6612;49.568;11.000;2023-08-12T04:21:56;20.50;64.80
13093;DHT22;6612;49.568;11.000;2023-08-12T04:24:23;20.60;64.10
13093;DHT22;6612;49.568;11.000;2023-08-12T04:26:50;20.60;64.20
13093;DHT22;6612;49.568;11.000;2023-08-12T04:29:17;20.70;64.30
13093;DHT22;6612;49.568;11.000;2023-08-12T04:31:45;20.70;64.40
13093;DHT22;6612;49.568;11.000;2023-08-12T04:34:12;20.80;64.60
13093;DHT22;6612;49.568;11.000;2023-08-12T04:36:39;20.80;65.30
13093;DHT22;6612;49.568;11.000;2023-08-12T04:39:06;20.90;64.70
13093;DHT22;6612;49.568;11.000;2023-08-12T04:41:32;20.90;64.90
13093;DHT22;6612;49.568;11.000;2023-08-12T04:43:59;21.00;65.10
13093;DHT22;6612;49.568;11.000;2023-08-12T04:46:26;21.10;65.30
13093;DHT22;6612;49.568;11.000;2023-08-12T04:48:55;21.20;65.70
13093;DHT22;6612;49.568;11.000;2023-08-12T04:51:22;21.40;66.30
13093;DHT22;6612;49.568;11.000;2023-08-12T04:53:49;21.50;66.50
13093;DHT22;6612;49.568;11.000;2023-08-12T04:56:16;21.70;66.60
13093;DHT22;6612;49.568;11.000;2023-08-12T04:58:43;21.90;66.70
13093;DHT22;6612;49.568;11.000;2023-08-12T05:01:10;22.20;66.90
13093;DHT22;6612;49.568;11.000;2023-08-12T05:03:37;22.40;66.70
13093;DHT22;6612;49.568;11.000;2023-08-12T05:06:05;22.60;65.90
13093;DHT22;6612;49.568;11.000;2023-08-12T05:08:32;22.80;65.10
13093;DHT22;6612;49.568;11.000;2023-08-12T05:10:59;22.90;64.40
13093;DHT22;6612;49.568;11.000;2023-08-12T05:13:25;23.00;64.00
13093;DHT22;6612;49.568;11.000;2023-08-12T05:15:53;23.00;63.80
13093;DHT22;6612;49.568;11.000;2023-08-12T05:18:21;23.10;63.80
13093;DHT22;6612;49.568;11.000;2023-08-12T05:20:51;23.20;63.90
13093;DHT22;6612;49.568;11.000;2023-08-12T05:23:20;23.30;64.10
13093;DHT22;6612;49.568;11.000;2023-08-12T05:25:47;23.40;64.70
13093;DHT22;6612;49.568;11.000;2023-08-12T05:28:14;23.60;64.80
13093;DHT22;6612;49.568;11.000;2023-08-12T05:30:40;23.80;65.20
13093;DHT22;6612;49.568;11.000;2023-08-12T05:33:07;24.00;65.30
13093;DHT22;6612;49.568;11.000;2023-08-12T05:35:34;24.30;66.00
13093;DHT22;6612;49.568;11.000;2023-08-12T05:38:02;24.60;66.60
13093;DHT22;6612;49.568;11.000;2023-08-12T05:40:30;25.00;67.20
13093;DHT22;6612;49.568;11.000;2023-08-12T05:42:57;25.50;66.40
13093;DHT22;6612;49.568;11.000;2023-08-12T05:45:24;25.90;65.00
13093;DHT22;6612;49.568;11.000;2023-08-12T05:47:51;26.40;64.40
13093;DHT22;6612;49.568;11.000;2023-08-12T05:50:18;26.90;63.70
13093;DHT22;6612;49.568;11.000;2023-08-12T05:52:45;27.20;62.10
13093;DHT22;6612;49.568;11.000;2023-08-12T05:55:12;27.60;60.70
13093;DHT22;6612;49.568;11.000;2023-08-12T05:57:40;27.90;59.70
13093;DHT22;6612;49.568;11.000;2023-08-12T06:00:07;28.30;58.30
13093;DHT22;6612;49.568;11.000;2023-08-12T06:02:34;28.50;56.60
13093;DHT22;6612;49.568;11.000;2023-08-12T06:05:02;28.70;55.30
13093;DHT22;6612;49.568;11.000;2023-08-12T06:07:29;28.70;53.80
13093;DHT22;6612;49.568;11.000;2023-08-12T06:09:56;28.60;52.70
13093;DHT22;6612;49.568;11.000;2023-08-12T06:12:23;28.50;52.10
13093;DHT22;6612;49.568;11.000;2023-08-12T06:14:51;28.30;51.80
13093;DHT22;6612;49.568;11.000;2023-08-12T06:17:18;28.10;51.60
13093;DHT22;6612;49.568;11.000;2023-08-12T06:19:45;27.90;51.50
13093;DHT22;6612;49.568;11.000;2023-08-12T06:22:12;27.70;51.70
13093;DHT22;6612;49.568;11.000;2023-08-12T06:24:39;27.50;51.80
13093;DHT22;6612;49.568;11.000;2023-08-12T06:27:07;27.30;52.00
13093;DHT22;6612;49.568;11.000;2023-08-12T06:29:34;27.10;52.20
13093;DHT22;6612;49.568;11.000;2023-08-12T06:32:02;27.00;52.50
13093;DHT22;6612;49.568;11.000;2023-08-12T06:34:29;26.90;52.50
13093;DHT22;6612;49.568;11.000;2023-08-12T06:36:56;26.80;52.80
13093;DHT22;6612;49.568;11.000;2023-08-12T06:39:23;26.70;53.10
13093;DHT22;6612;49.568;11.000;2023-08-12T06:41:50;26.60;53.30
13093;DHT22;6612;49.568;11.000;2023-08-12T06:44:18;26.50;53.40
13093;DHT22;6612;49.568;11.000;2023-08-12T06:46:45;26.50;53.70
13093;DHT22;6612;49.568;11.000;2023-08-12T06:49:13;26.40;53.90
13093;DHT22;6612;49.568;11.000;2023-08-12T06:51:40;26.40;54.20
13093;DHT22;6612;49.568;11.000;2023-08-12T06:54:07;26.40;54.40
13093;DHT22;6612;49.568;11.000;2023-08-12T06:56:34;26.40;54.60
13093;DHT22;6612;49.568;11.000;2023-08-12T06:59:01;26.40;54.80
13093;DHT22;6612;49.568;11.000;2023-08-12T07:01:28;26.40;54.70
13093;DHT22;6612;49.568;11.000;2023-08-12T07:03:55;26.50;54.90
13093;DHT22;6612;49.568;11.000;2023-08-12T07:06:23;26.60;55.00
13093;DHT22;6612;49.568;11.000;2023-08-12T07:08:50;26.60;54.70
13093;DHT22;6612;49.568;11.000;2023-08-12T07:11:17;26.70;54.60
13093;DHT22;6612;49.568;11.000;2023-08-12T07:13:44;26.80;54.70
13093;DHT22;6612;49.568;11.000;2023-08-12T07:16:12;26.80;54.70
13093;DHT22;6612;49.568;11.000;2023-08-12T07:18:39;26.90;54.60
13093;DHT22;6612;49.568;11.000;2023-08-12T07:21:06;26.90;54.50
13093;DHT22;6612;49.568;11.000;2023-08-12T07:23:35;27.00;54.40
13093;DHT22;6612;49.568;11.000;2023-08-12T07:26:01;27.10;54.10
13093;DHT22;6612;49.568;11.000;2023-08-12T07:28:28;27.20;54.50
13093;DHT22;6612;49.568;11.000;2023-08-12T07:30:55;27.30;54.60
13093;DHT22;6612;49.568;11.000;2023-08-12T07:33:22;27.40;54.50
13093;DHT22;6612;49.568;11.000;2023-08-12T07:35:50;27.60;54.40
13093;DHT22;6612;49.568;11.000;2023-08-12T07:38:17;27.70;54.10
13093;DHT22;6612;49.568;11.000;2023-08-12T07:40:45;27.90;54.10
13093;DHT22;6612;49.568;11.000;2023-08-12T07:43:12;28.10;53.80
13093;DHT22;6612;49.568;11.000;2023-08-12T07:45:39;28.20;53.70
13093;DHT22;6612;49.568;11.000;2023-08-12T07:48:06;28.30;53.50
13093;DHT22;6612;49.568;11.000;2023-08-12T07:50:33;28.50;53.10
13093;DHT22;6612;49.568;11.000;2023-08-12T07:53:00;28.60;53.00
13093;DHT22;6612;49.568;11.000;2023-08-12T07:55:27;28.80;53.10
13093;DHT22;6612;49.568;11.000;2023-08-12T07:57:56;28.90;52.80
13093;DHT22;6612;49.568;11.000;2023-08-12T08:00:23;29.00;52.60
13093;DHT22;6612;49.568;11.000;2023-08-12T08:02:50;29.10;52.70
13093;DHT22;6612;49.568;11.000;2023-08-12T08:05:17;29.20;52.50
13093;DHT22;6612;49.568;11.000;2023-08-12T08:07:44;29.30;52.00
13093;DHT22;6612;49.568;11.000;2023-08-12T08:10:11;29.30;51.60
13093;DHT22;6612;49.568;11.000;2023-08-12T08:12:38;29.40;51.60
13093;DHT22;6612;49.568;11.000;2023-08-12T08:15:07;29.50;51.50
13093;DHT22;6612;49.568;11.000;2023-08-12T08:17:34;29.60;51.30
13093;DHT22;6612;49.568;11.000;2023-08-12T08:20:02;29.70;51.60
13093;DHT22;6612;49.568;11.000;2023-08-12T08:22:30;29.80;51.60
13093;DHT22;6612;49.568;11.000;2023-08-12T08:24:58;29.90;51.10
13093;DHT22;6612;49.568;11.000;2023-08-12T08:27:25;30.00;50.50
13093;DHT22;6612;49.568;11.000;2023-08-12T08:29:52;30.10;50.40
13093;DHT22;6612;49.568;11.000;2023-08-12T08:32:20;30.20;50.50
13093;DHT22;6612;49.568;11.000;2023-08-12T08:34:47;30.30;50.40
13093;DHT22;6612;49.568;11.000;2023-08-12T08:37:14;30.40;50.50
13093;DHT22;6612;49.568;11.000;2023-08-12T08:39:41;30.60;50.30
13093;DHT22;6612;49.568;11.000;2023-08-12T08:42:10;30.70;49.90
13093;DHT22;6612;49.568;11.000;2023-08-12T08:44:41;30.90;49.40
13093;DHT22;6612;49.568;11.000;2023-08-12T08:47:09;31.00;49.30
13093;DHT22;6612;49.568;11.000;2023-08-12T08:49:38;31.10;49.00
13093;DHT22;6612;49.568;11.000;2023-08-12T08:52:07;31.20;48.00
13093;DHT22;6612;49.568;11.000;2023-08-12T08:54:34;31.30;48.20
13093;DHT22;6612;49.568;11.000;2023-08-12T08:57:01;31.30;48.40
13093;DHT22;6612;49.568;11.000;2023-08-12T08:59:28;31.40;48.40
13093;DHT22;6612;49.568;11.000;2023-08-12T09:01:56;31.50;49.30
13093;DHT22;6612;49.568;11.000;2023-08-12T09:04:24;31.70;49.40
13093;DHT22;6612;49.568;11.000;2023-08-12T09:06:54;31.80;48.60
13093;DHT22;6612;49.568;11.000;2023-08-12T09:09:22;31.90;48.10
13093;DHT22;6612;49.568;11.000;2023-08-12T09:11:51;32.10;47.80
13093;DHT22;6612;49.568;11.000;2023-08-12T09:14:19;32.20;47.20
13093;DHT22;6612;49.568;11.000;2023-08-12T09:16:46;32.20;46.80
13093;DHT22;6612;49.568;11.000;2023-08-12T09:19:13;32.30;46.40
13093;DHT22;6612;49.568;11.000;2023-08-12T09:21:41;32.30;45.90
13093;DHT22;6612;49.568;11.000;2023-08-12T09:24:10;32.30;45.50
13093;DHT22;6612;49.568;11.000;2023-08-12T09:26:36;32.30;45.70
13093;DHT22;6612;49.568;11.000;2023-08-12T09:29:04;32.30;45.90
13093;DHT22;6612;49.568;11.000;2023-08-12T09:31:31;32.40;45.80
13093;DHT22;6612;49.568;11.000;2023-08-12T09:34:00;32.40;45.60
13093;DHT22;6612;49.568;11.000;2023-08-12T09:36:30;32.50;45.50
13093;DHT22;6612;49.568;11.000;2023-08-12T09:38:57;32.50;45.60
13093;DHT22;6612;49.568;11.000;2023-08-12T09:41:26;32.60;45.80
13093;DHT22;6612;49.568;11.000;2023-08-12T09:43:55;32.60;45.20
13093;DHT22;6612;49.568;11.000;2023-08-12T09:46:23;32.70;45.20
13093;DHT22;6612;49.568;11.000;2023-08-12T09:48:50;32.70;44.70
13093;DHT22;6612;49.568;11.000;2023-08-12T09:51:18;32.70;44.20
13093;DHT22;6612;49.568;11.000;2023-08-12T09:53:47;32.70;44.40
13093;DHT22;6612;49.568;11.000;2023-08-12T09:56:17;32.70;45.00
13093;DHT22;6612;49.568;11.000;2023-08-12T09:58:48;32.80;45.10
13093;DHT22;6612;49.568;11.000;2023-08-12T10:01:18;32.90;45.20
13093;DHT22;6612;49.568;11.000;2023-08-12T10:03:48;32.90;44.10
13093;DHT22;6612;49.568;11.000;2023-08-12T10:06:16;33.00;44.10
13093;DHT22;6612;49.568;11.000;2023-08-12T10:08:44;33.00;44.10
13093;DHT22;6612;49.568;11.000;2023-08-12T10:11:13;33.10;44.40
13093;DHT22;6612;49.568;11.000;2023-08-12T10:13:40;33.20;43.90
13093;DHT22;6612;49.568;11.000;2023-08-12T10:16:10;33.20;43.60
13093;DHT22;6612;49.568;11.000;2023-08-12T10:18:39;33.30;43.20
13093;DHT22;6612;49.568;11.000;2023-08-12T10:21:09;33.30;43.20
13093;DHT22;6612;49.568;11.000;2023-08-12T10:23:37;33.30;42.40
13093;DHT22;6612;49.568;11.000;2023-08-12T10:26:05;33.30;43.00
13093;DHT22;6612;49.568;11.000;2023-08-12T10:28:33;33.20;42.90
13093;DHT22;6612;49.568;11.000;2023-08-12T10:31:03;33.20;42.60
13093;DHT22;6612;49.568;11.000;2023-08-12T10:33:35;33.10;42.50
13093;DHT22;6612;49.568;11.000;2023-08-12T10:36:03;33.00;42.20
13093;DHT22;6612;49.568;11.000;2023-08-12T10:38:32;33.00;43.30
13093;DHT22;6612;49.568;11.000;2023-08-12T10:41:16;33.00;43.40
13093;DHT22;6612;49.568;11.000;2023-08-12T10:43:52;32.90;43.10
13093;DHT22;6612;49.568;11.000;2023-08-12T10:46:28;32.90;43.60
13093;DHT22;6612;49.568;11.000;2023-08-12T10:49:03;32.90;43.50
13093;DHT22;6612;49.568;11.000;2023-08-12T10:51:52;32.90;43.70
13093;DHT22;6612;49.568;11.000;2023-08-12T10:54:23;32.90;43.20
13093;DHT22;6612;49.568;11.000;2023-08-12T10:57:08;32.80;43.70
13093;DHT22;6612;49.568;11.000;2023-08-12T10:59:51;32.80;43.20
13093;DHT22;6612;49.568;11.000;2023-08-12T11:02:19;32.70;43.70
13093;DHT22;6612;49.568;11.000;2023-08-12T11:04:51;32.70;44.40
13093;DHT22;6612;49.568;11.000;2023-08-12T11:07:20;32.70;44.10
13093;DHT22;6612;49.568;11.000;2023-08-12T11:09:51;32.70;43.90
13093;DHT22;6612;49.568;11.000;2023-08-12T11:12:28;32.70;44.60
13093;DHT22;6612;49.568;11.000;2023-08-12T11:14:58;32.70;44.60
13093;DHT22;6612;49.568;11.000;2023-08-12T11:17:31;32.70;44.00
13093;DHT22;6612;49.568;11.000;2023-08-12T11:20:01;32.80;44.10
13093;DHT22;6612;49.568;11.000;2023-08-12T11:22:31;32.80;44.30
13093;DHT22;6612;49.568;11.000;2023-08-12T11:24:59;32.80;43.90
13093;DHT22;6612;49.568;11.000;2023-08-12T11:27:27;32.80;43.40
13093;DHT22;6612;49.568;11.000;2023-08-12T11:29:54;32.80;43.50
13093;DHT22;6612;49.568;11.000;2023-08-12T11:32:21;32.80;43.80
13093;DHT22;6612;49.568;11.000;2023-08-12T11:34:48;32.80;44.00
13093;DHT22;6612;49.568;11.000;2023-08-12T11:37:16;32.80;44.40
13093;DHT22;6612;49.568;11.000;2023-08-12T11:39:43;32.70;44.60
13093;DHT22;6612;49.568;11.000;2023-08-12T11:42:10;32.70;44.30
13093;DHT22;6612;49.568;11.000;2023-08-12T11:44:39;32.70;44.30
13093;DHT22;6612;49.568;11.000;2023-08-12T11:47:07;32.70;44.10
13093;DHT22;6612;49.568;11.000;2023-08-12T11:49:34;32.70;44.30
13093;DHT22;6612;49.568;11.000;2023-08-12T11:52:01;32.70;44.40
13093;DHT22;6612;49.568;11.000;2023-08-12T11:54:30;32.70;44.70
13093;DHT22;6612;49.568;11.000;2023-08-12T11:56:58;32.70;44.70
13093;DHT22;6612;49.568;11.000;2023-08-12T11:59:25;32.70;45.20
13093;DHT22;6612;49.568;11.000;2023-08-12T12:01:54;32.80;45.00
13093;DHT22;6612;49.568;11.000;2023-08-12T12:04:22;32.80;44.00
13093;DHT22;6612;49.568;11.000;2023-08-12T12:06:49;32.80;44.10
13093;DHT22;6612;49.568;11.000;2023-08-12T12:09:16;32.80;44.20
13093;DHT22;6612;49.568;11.000;2023-08-12T12:11:45;32.80;44.50
13093;DHT22;6612;49.568;11.000;2023-08-12T12:14:12;32.80;45.10
13093;DHT22;6612;49.568;11.000;2023-08-12T12:16:40;32.80;44.60
13093;DHT22;6612;49.568;11.000;2023-08-12T12:19:14;32.80;44.10
13093;DHT22;6612;49.568;11.000;2023-08-12T12:21:42;32.80;44.00
13093;DHT22;6612;49.568;11.000;2023-08-12T12:24:11;32.70;43.70
13093;DHT22;6612;49.568;11.000;2023-08-12T12:26:38;32.70;43.50
13093;DHT22;6612;49.568;11.000;2023-08-12T12:29:07;32.70;43.50
13093;DHT22;6612;49.568;11.000;2023-08-12T12:31:37;32.70;43.50
13093;DHT22;6612;49.568;11.000;2023-08-12T12:34:05;32.70;44.00
13093;DHT22;6612;49.568;11.000;2023-08-12T12:36:34;32.70;43.90
13093;DHT22;6612;49.568;11.000;2023-08-12T12:39:02;32.70;44.20
13093;DHT22;6612;49.568;11.000;2023-08-12T12:41:29;32.70;44.00
13093;DHT22;6612;49.568;11.000;2023-08-12T12:43:56;32.60;44.10
13093;DHT22;6612;49.568;11.000;2023-08-12T12:46:24;32.70;44.40
13093;DHT22;6612;49.568;11.000;2023-08-12T12:48:51;32.70;44.50
13093;DHT22;6612;49.568;11.000;2023-08-12T12:51:18;32.70;44.90
13093;DHT22;6612;49.568;11.000;2023-08-12T12:53:45;32.70;45.50
13093;DHT22;6612;49.568;11.000;2023-08-12T12:56:12;32.80;44.90
13093;DHT22;6612;49.568;11.000;2023-08-12T12:58:39;32.80;45.10
13093;DHT22;6612;49.568;11.000;2023-08-12T13:01:06;32.90;44.80
13093;DHT22;6612;49.568;11.000;2023-08-12T13:03:35;33.00;44.30
13093;DHT22;6612;49.568;11.000;2023-08-12T13:06:02;33.10;44.90
13093;DHT22;6612;49.568;11.000;2023-08-12T13:08:29;33.20;45.00
13093;DHT22;6612;49.568;11.000;2023-08-12T13:10:57;33.30;45.40
13093;DHT22;6612;49.568;11.000;2023-08-12T13:13:24;33.40;45.70
13093;DHT22;6612;49.568;11.000;2023-08-12T13:15:51;33.60;45.90
13093;DHT22;6612;49.568;11.000;2023-08-12T13:18:18;33.70;45.50
13093;DHT22;6612;49.568;11.000;2023-08-12T13:20:47;33.80;44.70
13093;DHT22;6612;49.568;11.000;2023-08-12T13:23:14;33.90;44.50
13093;DHT22;6612;49.568;11.000;2023-08-12T13:25:41;34.10;44.50
13093;DHT22;6612;49.568;11.000;2023-08-12T13:28:09;34.20;44.90
13093;DHT22;6612;49.568;11.000;2023-08-12T13:30:36;34.30;44.80
13093;DHT22;6612;49.568;11.000;2023-08-12T13:33:03;34.40;44.40
13093;DHT22;6612;49.568;11.000;2023-08-12T13:35:31;34.50;44.10
13093;DHT22;6612;49.568;11.000;2023-08-12T13:37:59;34.50;43.80
13093;DHT22;6612;49.568;11.000;2023-08-12T13:40:26;34.60;43.30
13093;DHT22;6612;49.568;11.000;2023-08-12T13:42:53;34.60;42.80
13093;DHT22;6612;49.568;11.000;2023-08-12T13:45:20;34.60;42.60
13093;DHT22;6612;49.568;11.000;2023-08-12T13:47:47;34.60;42.60
13093;DHT22;6612;49.568;11.000;2023-08-12T13:50:14;34.60;42.70
13093;DHT22;6612;49.568;11.000;2023-08-12T13:52:41;34.50;43.50
13093;DHT22;6612;49.568;11.000;2023-08-12T13:55:10;34.40;44.70
13093;DHT22;6612;49.568;11.000;2023-08-12T13:57:37;34.30;45.20
13093;DHT22;6612;49.568;11.000;2023-08-12T14:00:05;34.10;45.30
13093;DHT22;6612;49.568;11.000;2023-08-12T14:02:35;33.80;44.90
13093;DHT22;6612;49.568;11.000;2023-08-12T14:05:02;33.50;44.50
13093;DHT22;6612;49.568;11.000;2023-08-12T14:07:30;33.20;44.70
13093;DHT22;6612;49.568;11.000;2023-08-12T14:09:58;32.70;45.30
13093;DHT22;6612;49.568;11.000;2023-08-12T14:12:26;32.20;45.70
13093;DHT22;6612;49.568;11.000;2023-08-12T14:14:53;31.70;46.50
13093;DHT22;6612;49.568;11.000;2023-08-12T14:17:20;31.20;47.30
13093;DHT22;6612;49.568;11.000;2023-08-12T14:19:49;30.70;48.70
13093;DHT22;6612;49.568;11.000;2023-08-12T14:22:16;30.30;49.00
13093;DHT22;6612;49.568;11.000;2023-08-12T14:24:43;29.80;49.60
13093;DHT22;6612;49.568;11.000;2023-08-12T14:27:11;29.50;50.40
13093;DHT22;6612;49.568;11.000;2023-08-12T14:29:39;29.10;51.00
13093;DHT22;6612;49.568;11.000;2023-08-12T14:32:06;28.70;51.80
13093;DHT22;6612;49.568;11.000;2023-08-12T14:34:33;28.50;52.40
13093;DHT22;6612;49.568;11.000;2023-08-12T14:37:01;28.20;53.30
13093;DHT22;6612;49.568;11.000;2023-08-12T14:39:28;27.90;55.10
13093;DHT22;6612;49.568;11.000;2023-08-12T14:41:55;27.60;57.00
13093;DHT22;6612;49.568;11.000;2023-08-12T14:44:22;27.30;59.10
13093;DHT22;6612;49.568;11.000;2023-08-12T14:46:51;27.00;61.10
13093;DHT22;6612;49.568;11.000;2023-08-12T14:49:18;26.80;62.60
13093;DHT22;6612;49.568;11.000;2023-08-12T14:51:45;26.60;63.40
13093;DHT22;6612;49.568;11.000;2023-08-12T14:54:12;26.30;64.20
13093;DHT22;6612;49.568;11.000;2023-08-12T14:56:39;26.20;65.30
13093;DHT22;6612;49.568;11.000;2023-08-12T14:59:05;26.00;65.90
13093;DHT22;6612;49.568;11.000;2023-08-12T15:01:32;25.80;66.40
13093;DHT22;6612;49.568;11.000;2023-08-12T15:04:01;25.60;67.50
13093;DHT22;6612;49.568;11.000;2023-08-12T15:06:28;25.50;69.50
13093;DHT22;6612;49.568;11.000;2023-08-12T15:08:55;25.30;69.10
13093;DHT22;6612;49.568;11.000;2023-08-12T15:11:22;25.20;70.10
13093;DHT22;6612;49.568;11.000;2023-08-12T15:13:49;25.00;70.60
13093;DHT22;6612;49.568;11.000;2023-08-12T15:16:16;24.90;71.60
13093;DHT22;6612;49.568;11.000;2023-08-12T15:18:43;24.90;73.00
13093;DHT22;6612;49.568;11.000;2023-08-12T15:21:11;24.80;74.20
13093;DHT22;6612;49.568;11.000;2023-08-12T15:23:38;24.70;75.70
13093;DHT22;6612;49.568;11.000;2023-08-12T15:26:05;24.70;76.50
13093;DHT22;6612;49.568;11.000;2023-08-12T15:28:32;24.70;77.30
13093;DHT22;6612;49.568;11.000;2023-08-12T15:30:59;24.60;77.80
13093;DHT22;6612;49.568;11.000;2023-08-12T15:33:26;24.60;78.20